Raven — WUT9940 — position and weather

sailwx.info

Track history (hours):
 
Tides and Currents Weather Stations Pressure Air Temp Water Temp Dewpoint Dewpoint Depression Visibility Wind Speed Wind Dir Waves Ship Positions

Raven

Owner: RAVEN ENTERPRISES, NEWPORT, OR. More information available from US FCC via Universal Licensing System and Coast Guard Vessel Documentation Center.

Last reported at 2018-Jun-23 14:08 UTC. Time now 2018-Jun-23 15:46 UTC.
Position N 44°28' W 124°46'.

MMSI: 367773988.

Date/timePositionNaut miles runAvg speedWind from/ knotsBaromVisibWave heightAir tempDewpointWater temp
2018-Jun-23 14:08N 44°28' W 124°46'1 8.8
2018-Jun-23 14:00N 44°27' W 124°47'53 9.0
2018-Jun-23 08:04N 45°19' W 124°30'1 9.7
2018-Jun-23 08:00N 45°20' W 124°29'5 9.8
2018-Jun-23 07:28N 45°25' W 124°28'5 9.9
2018-Jun-23 06:59N 45°29' W 124°26'5 9.8
2018-Jun-23 06:31N 45°34' W 124°24'5 9.5
2018-Jun-23 06:00N 45°38' W 124°23'5 9.7
2018-Jun-23 05:31N 45°43' W 124°21'5 9.5
2018-Jun-23 05:00N 45°48' W 124°19'7 9.4
2018-Jun-23 04:18N 45°54' W 124°17'4 9.6
2018-Jun-23 03:55N 45°57' W 124°15'410.0
2018-Jun-23 03:30N 46°01' W 124°14'7 9.9
2018-Jun-23 02:47N 46°09' W 124°12'2 8.8
2018-Jun-23 02:31N 46°11' W 124°11'5 9.5
2018-Jun-23 02:00N 46°14' W 124°06'4 8.0
2018-Jun-23 01:30N 46°15' W 124°01'5 9.2
2018-Jun-23 01:00N 46°12' W 123°56'5 9.4
2018-Jun-23 00:30N 46°12' W 123°49'2 4.6
2018-Jun-23 00:00N 46°12' W 123°46'0 0.0
2018-Jun-22 23:30N 46°12' W 123°46'0 0.0
2018-Jun-22 23:01N 46°12' W 123°46'0 0.0
2018-Jun-22 22:31N 46°12' W 123°46'0 0.0
2018-Jun-22 22:01N 46°12' W 123°46'0 0.0
2018-Jun-22 21:30N 46°12' W 123°46'0 0.0
2018-Jun-22 21:00N 46°12' W 123°46'0 0.0
2018-Jun-22 20:30N 46°12' W 123°46'0 0.0
2018-Jun-22 20:01N 46°12' W 123°46'0 0.0
2018-Jun-22 19:31N 46°12' W 123°46'0 0.0
2018-Jun-22 19:00N 46°12' W 123°46'1 1.8
2018-Jun-22 18:31N 46°13' W 123°46'4 8.7
2018-Jun-22 18:00N 46°11' W 123°52'4 8.4
2018-Jun-22 17:30N 46°13' W 123°58'4 8.6
2018-Jun-22 17:00N 46°15' W 124°03'4 9.0
2018-Jun-22 16:31N 46°13' W 124°09'5 9.6
2018-Jun-22 16:00N 46°10' W 124°15'5 9.1
2018-Jun-22 15:30N 46°07' W 124°20'4 8.8
2018-Jun-22 15:00N 46°03' W 124°22'5 9.1
2018-Jun-22 14:31N 45°59' W 124°22'5 9.2
2018-Jun-22 14:00N 45°54' W 124°23'5 9.2
2018-Jun-22 13:31N 45°50' W 124°24'5 9.4
2018-Jun-22 13:00N 45°45' W 124°25'5 9.5
2018-Jun-22 12:27N 45°40' W 124°25'4 9.5
2018-Jun-22 12:00N 45°35' W 124°26'5 9.6
2018-Jun-22 11:31N 45°31' W 124°27'5 9.6
2018-Jun-22 11:00N 45°26' W 124°28'5 9.5
2018-Jun-22 10:30N 45°21' W 124°28'5 9.5
2018-Jun-22 10:01N 45°16' W 124°29'5 9.6
2018-Jun-22 09:30N 45°12' W 124°30'5 9.4
2018-Jun-22 08:58N 45°07' W 124°31'5 9.1
2018-Jun-22 08:23N 45°01' W 124°32'3 8.9
2018-Jun-22 08:00N 44°58' W 124°32'4 8.8
2018-Jun-22 07:31N 44°54' W 124°33'4 7.8
2018-Jun-22 06:59N 44°50' W 124°33'3 7.1
2018-Jun-22 06:30N 44°46' W 124°34'3 4.1
2018-Jun-22 05:43N 44°43' W 124°35'1 2.1
2018-Jun-22 05:29N 44°43' W 124°35'0 0.8
2018-Jun-22 05:00N 44°42' W 124°35'2 2.3
2018-Jun-22 04:19N 44°44' W 124°34'1 2.9
2018-Jun-22 04:00N 44°45' W 124°34'2 3.0
2018-Jun-22 03:22N 44°46' W 124°34'1 3.2
2018-Jun-22 03:00N 44°47' W 124°33'2 3.3
2018-Jun-22 02:29N 44°49' W 124°31'2 3.3
2018-Jun-22 01:59N 44°50' W 124°30'2 3.2
2018-Jun-22 01:29N 44°52' W 124°29'2 3.1
2018-Jun-22 00:59N 44°53' W 124°28'4 8.5
2018-Jun-22 00:28N 44°56' W 124°24'2 3.9
2018-Jun-22 00:00N 44°55' W 124°21'3 6.2
2018-Jun-21 23:30N 44°52' W 124°22'3 6.1
2018-Jun-21 23:00N 44°49' W 124°23'1 1.5
2018-Jun-21 22:23N 44°48' W 124°23'2 5.8
2018-Jun-21 22:00N 44°50' W 124°25'1 2.4
2018-Jun-21 21:30N 44°51' W 124°25'2 3.5
2018-Jun-21 21:00N 44°52' W 124°23'3 4.9
2018-Jun-21 20:28N 44°50' W 124°25'1 0.5
2018-Jun-21 18:38N 44°51' W 124°25'1 9.8
2018-Jun-21 18:31N 44°51' W 124°23'5 8.9
2018-Jun-21 17:56N 44°54' W 124°18'510.4
2018-Jun-21 17:29N 44°57' W 124°12'4 8.7
2018-Jun-21 17:00N 45°01' W 124°13'4 8.3
2018-Jun-21 16:28N 45°05' W 124°11'6 9.6
2018-Jun-21 15:53N 45°09' W 124°17'4 9.8
2018-Jun-21 15:30N 45°12' W 124°19'510.5
2018-Jun-21 15:00N 45°18' W 124°18'510.8
2018-Jun-21 14:31N 45°23' W 124°16'510.5
2018-Jun-21 14:00N 45°28' W 124°15'510.4
2018-Jun-21 13:30N 45°33' W 124°13'510.1
2018-Jun-21 13:00N 45°38' W 124°12'510.2
2018-Jun-21 12:31N 45°43' W 124°13'810.5
2018-Jun-21 11:43N 45°51' W 124°14'211.0
2018-Jun-21 11:30N 45°54' W 124°14'511.0
2018-Jun-21 11:00N 45°59' W 124°15'510.6
2018-Jun-21 10:30N 46°04' W 124°14'510.7
2018-Jun-21 10:00N 46°09' W 124°11'510.6
2018-Jun-21 09:30N 46°14' W 124°07'710.8
2018-Jun-21 08:49N 46°13' W 123°57'412.7
2018-Jun-21 08:30N 46°12' W 123°51'4 7.7
2018-Jun-21 08:01N 46°12' W 123°46'0 0.0
2018-Jun-21 07:31N 46°12' W 123°46'0 0.0
2018-Jun-21 06:59N 46°12' W 123°46'0 0.0
2018-Jun-21 06:31N 46°12' W 123°46'0 0.0
2018-Jun-21 05:49N 46°12' W 123°46'0 0.0
2018-Jun-21 05:30N 46°12' W 123°46'0 0.0
2018-Jun-21 05:01N 46°12' W 123°46'0 0.0
2018-Jun-21 04:30N 46°12' W 123°46'0 0.0
2018-Jun-21 04:00N 46°12' W 123°46'0 0.0
2018-Jun-21 03:25N 46°12' W 123°46'0 0.0
2018-Jun-21 02:40N 46°12' W 123°46'0 0.0
2018-Jun-21 02:28N 46°12' W 123°46'0 0.0
2018-Jun-21 01:49N 46°12' W 123°46'0 0.0
2018-Jun-21 01:27N 46°12' W 123°46'0 0.0
2018-Jun-21 01:00N 46°12' W 123°46'0 0.0
2018-Jun-21 00:30N 46°12' W 123°46'0 0.0
2018-Jun-20 23:47N 46°12' W 123°46'0 0.0
2018-Jun-20 23:19N 46°12' W 123°46'0 0.0
2018-Jun-20 22:49N 46°12' W 123°46'0 0.0
2018-Jun-20 22:23N 46°12' W 123°46'0 0.0
2018-Jun-20 21:57N 46°12' W 123°46'0 0.0
2018-Jun-20 21:28N 46°12' W 123°46'0 0.0
2018-Jun-20 21:01N 46°12' W 123°46'0 0.0
2018-Jun-20 20:27N 46°12' W 123°46'0 0.0
2018-Jun-20 19:58N 46°12' W 123°46'0 0.0
2018-Jun-20 19:22N 46°12' W 123°46'0 0.0
2018-Jun-20 19:00N 46°12' W 123°46'0 0.0
2018-Jun-20 18:24N 46°12' W 123°46'0 0.0
2018-Jun-20 17:56N 46°12' W 123°46'0 0.0
2018-Jun-20 17:24N 46°12' W 123°46'0 0.0
2018-Jun-20 16:58N 46°12' W 123°46'0 0.0
2018-Jun-20 16:24N 46°12' W 123°46'0 0.9
2018-Jun-20 15:56N 46°12' W 123°45'3 6.0
2018-Jun-20 15:23N 46°12' W 123°50'0 0.5
2018-Jun-20 14:59N 46°12' W 123°50'0 0.0
2018-Jun-20 14:29N 46°12' W 123°50'0 0.0
2018-Jun-20 13:59N 46°12' W 123°50'0 0.0
2018-Jun-20 13:30N 46°12' W 123°50'0 0.0
2018-Jun-20 12:57N 46°12' W 123°50'0 0.0
2018-Jun-20 12:25N 46°12' W 123°50'1 2.9
2018-Jun-20 11:59N 46°12' W 123°52'4 7.8
2018-Jun-20 11:28N 46°13' W 123°58'5 7.8
2018-Jun-20 10:46N 46°15' W 124°05'2 6.2
2018-Jun-20 10:30N 46°16' W 124°07'2 4.6
2018-Jun-20 10:00N 46°18' W 124°08'2 4.4
2018-Jun-20 09:31N 46°20' W 124°09'2 4.6
2018-Jun-20 09:01N 46°22' W 124°11'2 4.8
2018-Jun-20 08:31N 46°24' W 124°12'3 5.1
2018-Jun-20 08:01N 46°27' W 124°13'3 5.2
2018-Jun-20 07:31N 46°29' W 124°15'2 4.7
2018-Jun-20 06:59N 46°31' W 124°16'6 4.4
2018-Jun-20 05:36N 46°37' W 124°20'0 4.6
2018-Jun-20 05:31N 46°37' W 124°20'2 4.7
2018-Jun-20 05:00N 46°40' W 124°21'2 4.7
2018-Jun-20 04:31N 46°42' W 124°23'2 4.9
2018-Jun-20 04:00N 46°44' W 124°24'4 5.3
2018-Jun-20 03:20N 46°47' W 124°26'2 5.2
2018-Jun-20 03:00N 46°49' W 124°27'3 5.1
2018-Jun-20 02:31N 46°51' W 124°28'3 5.1
2018-Jun-20 02:00N 46°54' W 124°30'2 5.0
2018-Jun-20 01:31N 46°56' W 124°31'2 4.7
2018-Jun-20 01:00N 46°58' W 124°33'3 4.5
2018-Jun-20 00:17N 47°01' W 124°34'1 4.6
2018-Jun-20 00:01N 47°02' W 124°35'3 4.7
2018-Jun-19 23:29N 47°04' W 124°37'2 4.9
2018-Jun-19 23:01N 47°07' W 124°38'2 5.0
2018-Jun-19 22:30N 47°09' W 124°39'2 4.9
2018-Jun-19 22:01N 47°11' W 124°41'5 5.5
2018-Jun-19 21:07N 47°16' W 124°44'1 4.5
2018-Jun-19 20:55N 47°16' W 124°44'2 3.7
2018-Jun-19 20:30N 47°18' W 124°46'0 0.9
2018-Jun-19 20:01N 47°17' W 124°46'1 3.0
2018-Jun-19 19:30N 47°19' W 124°46'0 0.4
2018-Jun-19 19:01N 47°19' W 124°46'2 3.1
2018-Jun-19 18:30N 47°17' W 124°46'4 5.3
2018-Jun-19 17:45N 47°21' W 124°48'2 9.0
2018-Jun-19 17:30N 47°23' W 124°47'4 8.0
2018-Jun-19 17:00N 47°27' W 124°50'7 8.2
2018-Jun-19 16:07N 47°30' W 124°60'1 8.4
2018-Jun-19 15:59N 47°31' W 124°58'3 4.2
2018-Jun-19 15:15N 47°29' W 124°54'1 2.5
2018-Jun-19 14:48N 47°29' W 124°53'1 3.5
2018-Jun-19 14:22N 47°28' W 124°51'0 0.7
2018-Jun-19 14:01N 47°28' W 124°51'2 3.2
2018-Jun-19 13:30N 47°29' W 124°53'1 1.9
2018-Jun-19 12:59N 47°28' W 124°51'4 8.0
2018-Jun-19 12:30N 47°25' W 124°49'1 1.4
2018-Jun-19 12:01N 47°26' W 124°49'1 1.4
2018-Jun-19 11:28N 47°26' W 124°50'2 4.5
2018-Jun-19 11:00N 47°26' W 124°47'0 0.2
2018-Jun-19 10:30N 47°26' W 124°47'0 0.2
2018-Jun-19 09:59N 47°26' W 124°47'0 0.2
2018-Jun-19 09:30N 47°26' W 124°47'0 0.2
2018-Jun-19 09:00N 47°26' W 124°47'0 0.3
2018-Jun-19 08:31N 47°26' W 124°47'0 0.4
2018-Jun-19 08:01N 47°26' W 124°47'0 0.4
2018-Jun-19 07:30N 47°26' W 124°48'0 0.4
2018-Jun-19 06:59N 47°26' W 124°48'0 0.5
2018-Jun-19 06:20N 47°27' W 124°48'2 5.8
2018-Jun-19 06:01N 47°26' W 124°51'4 7.4
2018-Jun-19 05:31N 47°24' W 124°55'4 6.7
2018-Jun-19 04:58N 47°21' W 124°57'5 7.6
2018-Jun-19 04:18N 47°16' W 124°57'2 7.3
2018-Jun-19 04:01N 47°14' W 124°57'4 7.4
2018-Jun-19 03:30N 47°10' W 124°57'4 7.7
2018-Jun-19 03:00N 47°06' W 124°59'4 7.4
2018-Jun-19 02:30N 47°03' W 124°57'4 7.8
2018-Jun-19 02:00N 46°59' W 124°59'3 6.6
2018-Jun-19 01:31N 46°56' W 124°56'3 6.9
2018-Jun-19 01:00N 46°53' W 124°53'3 5.7
2018-Jun-19 00:30N 46°51' W 124°51'4 8.5
2018-Jun-19 00:00N 46°48' W 124°47'4 8.6
2018-Jun-18 23:30N 46°44' W 124°43'4 8.4
2018-Jun-18 23:00N 46°41' W 124°40'4 8.6
2018-Jun-18 22:31N 46°37' W 124°37'3 5.7
2018-Jun-18 22:00N 46°35' W 124°34'3 6.7
2018-Jun-18 21:31N 46°33' W 124°30'3 6.5
2018-Jun-18 21:01N 46°34' W 124°34'4 8.2
2018-Jun-18 20:30N 46°37' W 124°39'4 7.9
2018-Jun-18 20:00N 46°39' W 124°44'2 3.3
2018-Jun-18 19:31N 46°39' W 124°46'4 8.9
2018-Jun-18 19:01N 46°37' W 124°40'4 7.5
2018-Jun-18 18:30N 46°35' W 124°36'2 3.5
2018-Jun-18 18:00N 46°35' W 124°33'2 2.7
2018-Jun-18 17:21N 46°34' W 124°31'0 1.1
2018-Jun-18 17:00N 46°34' W 124°32'2 3.3
2018-Jun-18 16:30N 46°32' W 124°32'5 9.4
2018-Jun-18 16:01N 46°29' W 124°27'5 9.6
2018-Jun-18 15:30N 46°25' W 124°22'5 9.4
2018-Jun-18 15:01N 46°22' W 124°17'5 9.3
2018-Jun-18 14:31N 46°19' W 124°12'5 9.5
2018-Jun-18 14:00N 46°16' W 124°08'611.5
2018-Jun-18 13:31N 46°14' W 123°59'510.9
2018-Jun-18 13:00N 46°12' W 123°53'510.1
2018-Jun-18 12:30N 46°13' W 123°46'1 1.8
2018-Jun-18 12:00N 46°12' W 123°46'0 0.0
2018-Jun-18 11:31N 46°12' W 123°46'0 0.0
2018-Jun-18 11:01N 46°12' W 123°46'0 0.0
2018-Jun-18 10:30N 46°12' W 123°46'0 0.0
2018-Jun-18 10:00N 46°12' W 123°46'0 0.0
2018-Jun-18 09:30N 46°12' W 123°46'0 0.0
2018-Jun-18 09:01N 46°12' W 123°46'0 0.0
2018-Jun-18 08:31N 46°12' W 123°46'0 0.0
2018-Jun-18 08:01N 46°12' W 123°46'0 0.0
2018-Jun-18 07:31N 46°12' W 123°46'0 0.0
2018-Jun-18 06:59N 46°12' W 123°46'0 0.0
2018-Jun-18 06:29N 46°12' W 123°46'2 3.5
2018-Jun-18 06:01N 46°12' W 123°48'4 7.1
2018-Jun-18 05:30N 46°11' W 123°53'3 5.7
2018-Jun-18 05:01N 46°13' W 123°57'3 5.6
2018-Jun-18 04:31N 46°15' W 123°60'3 5.3
2018-Jun-18 04:01N 46°16' W 124°03'3 5.1
2018-Jun-18 03:31N 46°16' W 124°07'5 9.5
2018-Jun-18 03:00N 46°20' W 124°09'9 9.7
2018-Jun-18 02:06N 46°29' W 124°14'4 9.8
2018-Jun-18 01:44N 46°32' W 124°16'2 9.9
2018-Jun-18 01:30N 46°34' W 124°18'510.3
2018-Jun-18 01:01N 46°39' W 124°20'510.5
2018-Jun-18 00:30N 46°44' W 124°23'5 9.9
2018-Jun-18 00:01N 46°48' W 124°26'510.1
2018-Jun-17 23:31N 46°53' W 124°29'7 9.9
2018-Jun-17 22:47N 46°59' W 124°33'3 9.8
2018-Jun-17 22:31N 47°02' W 124°35'5 9.9
2018-Jun-17 22:00N 47°06' W 124°38'7 9.8
2018-Jun-17 21:18N 47°13' W 124°42'410.8
2018-Jun-17 20:56N 47°17' W 124°44'4 7.9
2018-Jun-17 20:23N 47°20' W 124°47'2 5.9
2018-Jun-17 20:01N 47°23' W 124°47'1 2.7
2018-Jun-17 19:31N 47°24' W 124°48'1 2.6
2018-Jun-17 19:01N 47°25' W 124°48'2 3.0
2018-Jun-17 18:31N 47°26' W 124°49'2 3.2
2018-Jun-17 18:00N 47°28' W 124°51'2 3.4
2018-Jun-17 17:30N 47°29' W 124°53'4 2.6
2018-Jun-17 15:51N 47°25' W 124°49'1 2.9
2018-Jun-17 15:31N 47°24' W 124°49'1 2.9
2018-Jun-17 15:00N 47°23' W 124°48'0 0.9
2018-Jun-17 14:31N 47°23' W 124°48'2 3.4
2018-Jun-17 14:00N 47°24' W 124°49'2 3.5
2018-Jun-17 13:30N 47°26' W 124°50'2 4.6
2018-Jun-17 13:00N 47°28' W 124°52'2 3.7
2018-Jun-17 12:30N 47°27' W 124°49'1 1.6
2018-Jun-17 12:00N 47°26' W 124°49'3 5.4
2018-Jun-17 11:30N 47°28' W 124°51'1 1.8
2018-Jun-17 11:00N 47°29' W 124°52'1 1.1
2018-Jun-17 10:31N 47°29' W 124°52'1 1.2
2018-Jun-17 09:49N 47°30' W 124°53'0 1.0
2018-Jun-17 09:31N 47°30' W 124°53'0 1.0
2018-Jun-17 09:00N 47°31' W 124°54'0 0.8
2018-Jun-17 08:31N 47°31' W 124°54'0 0.9
2018-Jun-17 08:00N 47°31' W 124°55'0 0.8
2018-Jun-17 07:30N 47°32' W 124°55'0 0.9
2018-Jun-17 06:58N 47°32' W 124°55'0 0.9
2018-Jun-17 06:30N 47°33' W 124°55'0 0.9
2018-Jun-17 06:01N 47°33' W 124°55'0 0.9
2018-Jun-17 05:30N 47°34' W 124°55'1 1.1
2018-Jun-17 04:58N 47°34' W 124°55'3 6.4
2018-Jun-17 04:31N 47°37' W 124°56'4 7.2
2018-Jun-17 04:00N 47°41' W 124°55'5 9.5
2018-Jun-17 03:29N 47°41' W 125°02'3 6.9
2018-Jun-17 03:01N 47°44' W 125°05'3 5.4
2018-Jun-17 02:30N 47°46' W 125°04'7 8.7
2018-Jun-17 01:45N 47°51' W 125°11'310.4
2018-Jun-17 01:29N 47°54' W 125°13'510.3
2018-Jun-17 01:01N 47°58' W 125°17'3 6.7
2018-Jun-17 00:30N 48°01' W 125°20'1 2.1
2018-Jun-17 00:01N 48°02' W 125°21'1 2.6
2018-Jun-16 23:31N 48°03' W 125°21'1 2.6
2018-Jun-16 23:00N 48°03' W 125°19'1 3.0
2018-Jun-16 22:31N 48°05' W 125°20'1 1.4
2018-Jun-16 22:00N 48°05' W 125°19'0 0.8
2018-Jun-16 21:31N 48°04' W 125°19'1 2.0
2018-Jun-16 20:57N 48°03' W 125°19'1 2.5
2018-Jun-16 20:30N 48°04' W 125°20'1 1.4
2018-Jun-16 19:59N 48°04' W 125°19'3 6.5
2018-Jun-16 19:30N 48°01' W 125°20'4 7.7
2018-Jun-16 19:00N 47°58' W 125°17'62 4.8
2018-Jun-16 06:02N 47°02' W 124°35'1 8.6
2018-Jun-16 05:55N 47°01' W 124°35'3 8.4
2018-Jun-16 05:30N 46°58' W 124°33'4 8.7
2018-Jun-16 05:00N 46°54' W 124°30'5 9.0
2018-Jun-16 04:28N 46°50' W 124°27'5 8.4
2018-Jun-16 03:54N 46°45' W 124°25'3 8.4
2018-Jun-16 03:30N 46°42' W 124°23'4 8.3
2018-Jun-16 03:00N 46°38' W 124°21'4 8.3
2018-Jun-16 02:30N 46°35' W 124°18'5 8.5
2018-Jun-16 01:53N 46°30' W 124°15'3 8.7
2018-Jun-16 01:30N 46°27' W 124°13'5 9.2
2018-Jun-16 01:00N 46°22' W 124°11'4 9.1
2018-Jun-16 00:31N 46°18' W 124°08'4 7.9
2018-Jun-16 00:01N 46°15' W 124°04'5 9.9
2018-Jun-15 23:31N 46°13' W 123°58'4 8.8
2018-Jun-15 23:01N 46°12' W 123°52'4 8.6
2018-Jun-15 22:30N 46°13' W 123°46'1 1.9
2018-Jun-15 22:01N 46°12' W 123°46'0 0.0
2018-Jun-15 21:31N 46°12' W 123°46'0 0.0
2018-Jun-15 21:01N 46°12' W 123°46'0 0.0
2018-Jun-15 20:31N 46°12' W 123°46'0 0.0
2018-Jun-15 20:00N 46°12' W 123°46'0 0.0
2018-Jun-15 19:30N 46°12' W 123°46'0 0.0
2018-Jun-15 19:00N 46°12' W 123°46'0 0.0
2018-Jun-15 18:31N 46°12' W 123°46'0 0.0
2018-Jun-15 18:00N 46°12' W 123°46'0 0.0
2018-Jun-15 17:31N 46°12' W 123°46'0 0.0
2018-Jun-15 17:01N 46°12' W 123°46'0 0.0
2018-Jun-15 16:31N 46°12' W 123°46'0 0.0
2018-Jun-15 15:51N 46°12' W 123°46'0 0.0
2018-Jun-15 15:30N 46°12' W 123°46'0 0.0
2018-Jun-15 15:01N 46°12' W 123°46'0 0.0
2018-Jun-15 14:31N 46°12' W 123°46'0 0.0
2018-Jun-15 14:01N 46°12' W 123°46'0 0.0
2018-Jun-15 13:30N 46°12' W 123°46'0 0.0
2018-Jun-15 13:00N 46°12' W 123°46'0 0.0
2018-Jun-15 12:31N 46°12' W 123°46'0 0.0
2018-Jun-15 11:50N 46°12' W 123°46'0 0.0
2018-Jun-15 11:30N 46°12' W 123°46'0 0.0
2018-Jun-15 11:00N 46°12' W 123°46'0 0.0
2018-Jun-15 10:31N 46°12' W 123°46'0 0.0
2018-Jun-15 09:37N 46°12' W 123°46'0 0.0
2018-Jun-15 09:31N 46°12' W 123°46'0 0.0
2018-Jun-15 09:00N 46°12' W 123°46'0 0.0
2018-Jun-15 08:31N 46°12' W 123°46'0 0.0
2018-Jun-15 08:00N 46°12' W 123°46'0 0.0
2018-Jun-15 07:19N 46°12' W 123°46'0 0.0
2018-Jun-15 06:59N 46°12' W 123°46'0 0.0
2018-Jun-15 06:30N 46°12' W 123°46'0 0.0
2018-Jun-15 06:00N 46°12' W 123°46'0 0.0
2018-Jun-15 05:31N 46°12' W 123°46'0 0.0
2018-Jun-15 05:00N 46°12' W 123°46'0 0.0
2018-Jun-15 04:30N 46°12' W 123°46'0 0.0
2018-Jun-15 04:01N 46°12' W 123°46'0 0.0
2018-Jun-15 03:03N 46°12' W 123°46'0 0.0
2018-Jun-15 03:00N 46°12' W 123°46'0 0.0
2018-Jun-15 02:31N 46°12' W 123°46'0 0.0
2018-Jun-15 02:01N 46°12' W 123°46'0 0.0
2018-Jun-15 01:21N 46°12' W 123°46'0 0.0
2018-Jun-15 01:00N 46°12' W 123°46'0 0.0
2018-Jun-15 00:31N 46°12' W 123°46'0 0.0
2018-Jun-15 00:01N 46°12' W 123°46'0 0.0
2018-Jun-14 23:30N 46°12' W 123°46'2 3.6
2018-Jun-14 23:01N 46°12' W 123°48'2 3.3
2018-Jun-14 22:31N 46°12' W 123°50'0 0.0
2018-Jun-14 22:00N 46°12' W 123°50'5 9.1
2018-Jun-14 21:30N 46°13' W 123°57'611.3
2018-Jun-14 21:00N 46°15' W 124°04'5 9.8
2018-Jun-14 20:31N 46°18' W 124°10'5 9.8
2018-Jun-14 20:00N 46°21' W 124°16'5 9.9
2018-Jun-14 19:30N 46°25' W 124°20'4 8.6
2018-Jun-14 19:00N 46°28' W 124°24'4 7.4
2018-Jun-14 18:30N 46°31' W 124°28'3 6.4
2018-Jun-14 18:00N 46°33' W 124°31'1 2.8
2018-Jun-14 17:30N 46°34' W 124°32'1 2.0
2018-Jun-14 17:00N 46°34' W 124°31'1 3.0
2018-Jun-14 16:30N 46°33' W 124°29'2 4.2
2018-Jun-14 16:00N 46°34' W 124°32'4 8.3
2018-Jun-14 15:30N 46°30' W 124°29'5 9.7
2018-Jun-14 15:01N 46°26' W 124°25'6 9.7
2018-Jun-14 14:22N 46°22' W 124°19'4 9.8
2018-Jun-14 14:01N 46°19' W 124°15'5 9.9
2018-Jun-14 13:30N 46°16' W 124°10'4 7.9
2018-Jun-14 13:00N 46°15' W 124°04'713.3
2018-Jun-14 12:31N 46°12' W 123°56'713.4
2018-Jun-14 12:01N 46°13' W 123°46'1 1.9
2018-Jun-14 11:31N 46°12' W 123°46'0 0.0
2018-Jun-14 11:00N 46°12' W 123°46'0 0.0
2018-Jun-14 10:30N 46°12' W 123°46'0 0.0
2018-Jun-14 10:01N 46°12' W 123°46'0 0.0
2018-Jun-14 09:31N 46°12' W 123°46'0 0.0
2018-Jun-14 09:00N 46°12' W 123°46'0 0.0
2018-Jun-14 08:30N 46°12' W 123°46'0 0.0
2018-Jun-14 08:01N 46°12' W 123°46'0 0.0
2018-Jun-14 07:30N 46°12' W 123°46'4 7.7
2018-Jun-14 06:59N 46°12' W 123°51'511.2
2018-Jun-14 06:30N 46°14' W 123°58'611.2
2018-Jun-14 06:00N 46°15' W 124°06'710.5
2018-Jun-14 05:23N 46°20' W 124°12'410.5
2018-Jun-14 05:01N 46°23' W 124°16'510.8
2018-Jun-14 04:31N 46°28' W 124°21'510.7
2018-Jun-14 04:00N 46°32' W 124°26'710.7
2018-Jun-14 03:19N 46°37' W 124°33'310.3
2018-Jun-14 03:01N 46°40' W 124°36'5 9.9
2018-Jun-14 02:31N 46°44' W 124°40'5 9.8
2018-Jun-14 02:01N 46°47' W 124°45'5 9.9
2018-Jun-14 01:31N 46°51' W 124°49'4 7.9
2018-Jun-14 01:00N 46°54' W 124°53'2 4.8
2018-Jun-14 00:31N 46°56' W 124°55'1 2.0
2018-Jun-14 00:01N 46°56' W 124°57'2 3.2
2018-Jun-13 23:31N 46°56' W 124°59'1 2.9
2018-Jun-13 23:00N 46°56' W 124°57'1 1.2
2018-Jun-13 22:31N 46°56' W 124°56'1 2.0
2018-Jun-13 22:01N 46°56' W 124°57'2 3.7
2018-Jun-13 21:30N 46°56' W 125°00'3 6.4
2018-Jun-13 21:01N 46°55' W 124°56'5 9.4
2018-Jun-13 20:30N 46°50' W 124°55'4 9.1
2018-Jun-13 20:00N 46°46' W 124°53'4 8.6
2018-Jun-13 19:30N 46°43' W 124°48'4 7.9
2018-Jun-13 19:00N 46°40' W 124°44'4 7.9
2018-Jun-13 18:30N 46°37' W 124°40'5 9.8
2018-Jun-13 18:00N 46°39' W 124°34'510.1
2018-Jun-13 17:30N 46°42' W 124°27'4 6.5
2018-Jun-13 16:50N 46°40' W 124°22'3 9.3
2018-Jun-13 16:30N 46°37' W 124°20'4 8.8
2018-Jun-13 16:00N 46°33' W 124°18'4 8.5
2018-Jun-13 15:30N 46°29' W 124°15'4 8.5
2018-Jun-13 15:00N 46°25' W 124°13'4 8.8
2018-Jun-13 14:30N 46°21' W 124°10'  
Track history (hours):
 
Tides and Currents Weather Stations Pressure Air Temp Water Temp Dewpoint Dewpoint Depression Visibility Wind Speed Wind Dir Waves Ship Positions

Raven

Owner: RAVEN ENTERPRISES, NEWPORT, OR. More information available from US FCC via Universal Licensing System and Coast Guard Vessel Documentation Center.

Last reported at 2018-Jun-23 14:08 UTC. Time now 2018-Jun-23 15:46 UTC.
Position N 44°28' W 124°46'.

MMSI: 367773988.

Date/timePositionNaut miles runAvg speedWind from/ knotsBaromVisibWave heightAir tempDewpointWater temp
2018-Jun-23 14:08N 44°28' W 124°46'1 8.8
2018-Jun-23 14:00N 44°27' W 124°47'53 9.0
2018-Jun-23 08:04N 45°19' W 124°30'1 9.7
2018-Jun-23 08:00N 45°20' W 124°29'5 9.8
2018-Jun-23 07:28N 45°25' W 124°28'5 9.9
2018-Jun-23 06:59N 45°29' W 124°26'5 9.8
2018-Jun-23 06:31N 45°34' W 124°24'5 9.5
2018-Jun-23 06:00N 45°38' W 124°23'5 9.7
2018-Jun-23 05:31N 45°43' W 124°21'5 9.5
2018-Jun-23 05:00N 45°48' W 124°19'7 9.4
2018-Jun-23 04:18N 45°54' W 124°17'4 9.6
2018-Jun-23 03:55N 45°57' W 124°15'410.0
2018-Jun-23 03:30N 46°01' W 124°14'7 9.9
2018-Jun-23 02:47N 46°09' W 124°12'2 8.8
2018-Jun-23 02:31N 46°11' W 124°11'5 9.5
2018-Jun-23 02:00N 46°14' W 124°06'4 8.0
2018-Jun-23 01:30N 46°15' W 124°01'5 9.2
2018-Jun-23 01:00N 46°12' W 123°56'5 9.4
2018-Jun-23 00:30N 46°12' W 123°49'2 4.6
2018-Jun-23 00:00N 46°12' W 123°46'0 0.0
2018-Jun-22 23:30N 46°12' W 123°46'0 0.0
2018-Jun-22 23:01N 46°12' W 123°46'0 0.0
2018-Jun-22 22:31N 46°12' W 123°46'0 0.0
2018-Jun-22 22:01N 46°12' W 123°46'0 0.0
2018-Jun-22 21:30N 46°12' W 123°46'0 0.0
2018-Jun-22 21:00N 46°12' W 123°46'0 0.0
2018-Jun-22 20:30N 46°12' W 123°46'0 0.0
2018-Jun-22 20:01N 46°12' W 123°46'0 0.0
2018-Jun-22 19:31N 46°12' W 123°46'0 0.0
2018-Jun-22 19:00N 46°12' W 123°46'1 1.8
2018-Jun-22 18:31N 46°13' W 123°46'4 8.7
2018-Jun-22 18:00N 46°11' W 123°52'4 8.4
2018-Jun-22 17:30N 46°13' W 123°58'4 8.6
2018-Jun-22 17:00N 46°15' W 124°03'4 9.0
2018-Jun-22 16:31N 46°13' W 124°09'5 9.6
2018-Jun-22 16:00N 46°10' W 124°15'5 9.1
2018-Jun-22 15:30N 46°07' W 124°20'4 8.8
2018-Jun-22 15:00N 46°03' W 124°22'5 9.1
2018-Jun-22 14:31N 45°59' W 124°22'5 9.2
2018-Jun-22 14:00N 45°54' W 124°23'5 9.2
2018-Jun-22 13:31N 45°50' W 124°24'5 9.4
2018-Jun-22 13:00N 45°45' W 124°25'5 9.5
2018-Jun-22 12:27N 45°40' W 124°25'4 9.5
2018-Jun-22 12:00N 45°35' W 124°26'5 9.6
2018-Jun-22 11:31N 45°31' W 124°27'5 9.6
2018-Jun-22 11:00N 45°26' W 124°28'5 9.5
2018-Jun-22 10:30N 45°21' W 124°28'5 9.5
2018-Jun-22 10:01N 45°16' W 124°29'5 9.6
2018-Jun-22 09:30N 45°12' W 124°30'5 9.4
2018-Jun-22 08:58N 45°07' W 124°31'5 9.1
2018-Jun-22 08:23N 45°01' W 124°32'3 8.9
2018-Jun-22 08:00N 44°58' W 124°32'4 8.8
2018-Jun-22 07:31N 44°54' W 124°33'4 7.8
2018-Jun-22 06:59N 44°50' W 124°33'3 7.1
2018-Jun-22 06:30N 44°46' W 124°34'3 4.1
2018-Jun-22 05:43N 44°43' W 124°35'1 2.1
2018-Jun-22 05:29N 44°43' W 124°35'0 0.8
2018-Jun-22 05:00N 44°42' W 124°35'2 2.3
2018-Jun-22 04:19N 44°44' W 124°34'1 2.9
2018-Jun-22 04:00N 44°45' W 124°34'2 3.0
2018-Jun-22 03:22N 44°46' W 124°34'1 3.2
2018-Jun-22 03:00N 44°47' W 124°33'2 3.3
2018-Jun-22 02:29N 44°49' W 124°31'2 3.3
2018-Jun-22 01:59N 44°50' W 124°30'2 3.2
2018-Jun-22 01:29N 44°52' W 124°29'2 3.1
2018-Jun-22 00:59N 44°53' W 124°28'4 8.5
2018-Jun-22 00:28N 44°56' W 124°24'2 3.9
2018-Jun-22 00:00N 44°55' W 124°21'3 6.2
2018-Jun-21 23:30N 44°52' W 124°22'3 6.1
2018-Jun-21 23:00N 44°49' W 124°23'1 1.5
2018-Jun-21 22:23N 44°48' W 124°23'2 5.8
2018-Jun-21 22:00N 44°50' W 124°25'1 2.4
2018-Jun-21 21:30N 44°51' W 124°25'2 3.5
2018-Jun-21 21:00N 44°52' W 124°23'3 4.9
2018-Jun-21 20:28N 44°50' W 124°25'1 0.5
2018-Jun-21 18:38N 44°51' W 124°25'1 9.8
2018-Jun-21 18:31N 44°51' W 124°23'5 8.9
2018-Jun-21 17:56N 44°54' W 124°18'510.4
2018-Jun-21 17:29N 44°57' W 124°12'4 8.7
2018-Jun-21 17:00N 45°01' W 124°13'4 8.3
2018-Jun-21 16:28N 45°05' W 124°11'6 9.6
2018-Jun-21 15:53N 45°09' W 124°17'4 9.8
2018-Jun-21 15:30N 45°12' W 124°19'510.5
2018-Jun-21 15:00N 45°18' W 124°18'510.8
2018-Jun-21 14:31N 45°23' W 124°16'510.5
2018-Jun-21 14:00N 45°28' W 124°15'510.4
2018-Jun-21 13:30N 45°33' W 124°13'510.1
2018-Jun-21 13:00N 45°38' W 124°12'510.2
2018-Jun-21 12:31N 45°43' W 124°13'810.5
2018-Jun-21 11:43N 45°51' W 124°14'211.0
2018-Jun-21 11:30N 45°54' W 124°14'511.0
2018-Jun-21 11:00N 45°59' W 124°15'510.6
2018-Jun-21 10:30N 46°04' W 124°14'510.7
2018-Jun-21 10:00N 46°09' W 124°11'510.6
2018-Jun-21 09:30N 46°14' W 124°07'710.8
2018-Jun-21 08:49N 46°13' W 123°57'412.7
2018-Jun-21 08:30N 46°12' W 123°51'4 7.7
2018-Jun-21 08:01N 46°12' W 123°46'0 0.0
2018-Jun-21 07:31N 46°12' W 123°46'0 0.0
2018-Jun-21 06:59N 46°12' W 123°46'0 0.0
2018-Jun-21 06:31N 46°12' W 123°46'0 0.0
2018-Jun-21 05:49N 46°12' W 123°46'0 0.0
2018-Jun-21 05:30N 46°12' W 123°46'0 0.0
2018-Jun-21 05:01N 46°12' W 123°46'0 0.0
2018-Jun-21 04:30N 46°12' W 123°46'0 0.0
2018-Jun-21 04:00N 46°12' W 123°46'0 0.0
2018-Jun-21 03:25N 46°12' W 123°46'0 0.0
2018-Jun-21 02:40N 46°12' W 123°46'0 0.0
2018-Jun-21 02:28N 46°12' W 123°46'0 0.0
2018-Jun-21 01:49N 46°12' W 123°46'0 0.0
2018-Jun-21 01:27N 46°12' W 123°46'0 0.0
2018-Jun-21 01:00N 46°12' W 123°46'0 0.0
2018-Jun-21 00:30N 46°12' W 123°46'0 0.0
2018-Jun-20 23:47N 46°12' W 123°46'0 0.0
2018-Jun-20 23:19N 46°12' W 123°46'0 0.0
2018-Jun-20 22:49N 46°12' W 123°46'0 0.0
2018-Jun-20 22:23N 46°12' W 123°46'0 0.0
2018-Jun-20 21:57N 46°12' W 123°46'0 0.0
2018-Jun-20 21:28N 46°12' W 123°46'0 0.0
2018-Jun-20 21:01N 46°12' W 123°46'0 0.0
2018-Jun-20 20:27N 46°12' W 123°46'0 0.0
2018-Jun-20 19:58N 46°12' W 123°46'0 0.0
2018-Jun-20 19:22N 46°12' W 123°46'0 0.0
2018-Jun-20 19:00N 46°12' W 123°46'0 0.0
2018-Jun-20 18:24N 46°12' W 123°46'0 0.0
2018-Jun-20 17:56N 46°12' W 123°46'0 0.0
2018-Jun-20 17:24N 46°12' W 123°46'0 0.0
2018-Jun-20 16:58N 46°12' W 123°46'0 0.0
2018-Jun-20 16:24N 46°12' W 123°46'0 0.9
2018-Jun-20 15:56N 46°12' W 123°45'3 6.0
2018-Jun-20 15:23N 46°12' W 123°50'0 0.5
2018-Jun-20 14:59N 46°12' W 123°50'0 0.0
2018-Jun-20 14:29N 46°12' W 123°50'0 0.0
2018-Jun-20 13:59N 46°12' W 123°50'0 0.0
2018-Jun-20 13:30N 46°12' W 123°50'0 0.0
2018-Jun-20 12:57N 46°12' W 123°50'0 0.0
2018-Jun-20 12:25N 46°12' W 123°50'1 2.9
2018-Jun-20 11:59N 46°12' W 123°52'4 7.8
2018-Jun-20 11:28N 46°13' W 123°58'5 7.8
2018-Jun-20 10:46N 46°15' W 124°05'2 6.2
2018-Jun-20 10:30N 46°16' W 124°07'2 4.6
2018-Jun-20 10:00N 46°18' W 124°08'2 4.4
2018-Jun-20 09:31N 46°20' W 124°09'2 4.6
2018-Jun-20 09:01N 46°22' W 124°11'2 4.8
2018-Jun-20 08:31N 46°24' W 124°12'3 5.1
2018-Jun-20 08:01N 46°27' W 124°13'3 5.2
2018-Jun-20 07:31N 46°29' W 124°15'2 4.7
2018-Jun-20 06:59N 46°31' W 124°16'6 4.4
2018-Jun-20 05:36N 46°37' W 124°20'0 4.6
2018-Jun-20 05:31N 46°37' W 124°20'2 4.7
2018-Jun-20 05:00N 46°40' W 124°21'2 4.7
2018-Jun-20 04:31N 46°42' W 124°23'2 4.9
2018-Jun-20 04:00N 46°44' W 124°24'4 5.3
2018-Jun-20 03:20N 46°47' W 124°26'2 5.2
2018-Jun-20 03:00N 46°49' W 124°27'3 5.1
2018-Jun-20 02:31N 46°51' W 124°28'3 5.1
2018-Jun-20 02:00N 46°54' W 124°30'2 5.0
2018-Jun-20 01:31N 46°56' W 124°31'2 4.7
2018-Jun-20 01:00N 46°58' W 124°33'3 4.5
2018-Jun-20 00:17N 47°01' W 124°34'1 4.6
2018-Jun-20 00:01N 47°02' W 124°35'3 4.7
2018-Jun-19 23:29N 47°04' W 124°37'2 4.9
2018-Jun-19 23:01N 47°07' W 124°38'2 5.0
2018-Jun-19 22:30N 47°09' W 124°39'2 4.9
2018-Jun-19 22:01N 47°11' W 124°41'5 5.5
2018-Jun-19 21:07N 47°16' W 124°44'1 4.5
2018-Jun-19 20:55N 47°16' W 124°44'2 3.7
2018-Jun-19 20:30N 47°18' W 124°46'0 0.9
2018-Jun-19 20:01N 47°17' W 124°46'1 3.0
2018-Jun-19 19:30N 47°19' W 124°46'0 0.4
2018-Jun-19 19:01N 47°19' W 124°46'2 3.1
2018-Jun-19 18:30N 47°17' W 124°46'4 5.3
2018-Jun-19 17:45N 47°21' W 124°48'2 9.0
2018-Jun-19 17:30N 47°23' W 124°47'4 8.0
2018-Jun-19 17:00N 47°27' W 124°50'7 8.2
2018-Jun-19 16:07N 47°30' W 124°60'1 8.4
2018-Jun-19 15:59N 47°31' W 124°58'3 4.2
2018-Jun-19 15:15N 47°29' W 124°54'1 2.5
2018-Jun-19 14:48N 47°29' W 124°53'1 3.5
2018-Jun-19 14:22N 47°28' W 124°51'0 0.7
2018-Jun-19 14:01N 47°28' W 124°51'2 3.2
2018-Jun-19 13:30N 47°29' W 124°53'1 1.9
2018-Jun-19 12:59N 47°28' W 124°51'4 8.0
2018-Jun-19 12:30N 47°25' W 124°49'1 1.4
2018-Jun-19 12:01N 47°26' W 124°49'1 1.4
2018-Jun-19 11:28N 47°26' W 124°50'2 4.5
2018-Jun-19 11:00N 47°26' W 124°47'0 0.2
2018-Jun-19 10:30N 47°26' W 124°47'0 0.2
2018-Jun-19 09:59N 47°26' W 124°47'0 0.2
2018-Jun-19 09:30N 47°26' W 124°47'0 0.2
2018-Jun-19 09:00N 47°26' W 124°47'0 0.3
2018-Jun-19 08:31N 47°26' W 124°47'0 0.4
2018-Jun-19 08:01N 47°26' W 124°47'0 0.4
2018-Jun-19 07:30N 47°26' W 124°48'0 0.4
2018-Jun-19 06:59N 47°26' W 124°48'0 0.5
2018-Jun-19 06:20N 47°27' W 124°48'2 5.8
2018-Jun-19 06:01N 47°26' W 124°51'4 7.4
2018-Jun-19 05:31N 47°24' W 124°55'4 6.7
2018-Jun-19 04:58N 47°21' W 124°57'5 7.6
2018-Jun-19 04:18N 47°16' W 124°57'2 7.3
2018-Jun-19 04:01N 47°14' W 124°57'4 7.4
2018-Jun-19 03:30N 47°10' W 124°57'4 7.7
2018-Jun-19 03:00N 47°06' W 124°59'4 7.4
2018-Jun-19 02:30N 47°03' W 124°57'4 7.8
2018-Jun-19 02:00N 46°59' W 124°59'3 6.6
2018-Jun-19 01:31N 46°56' W 124°56'3 6.9
2018-Jun-19 01:00N 46°53' W 124°53'3 5.7
2018-Jun-19 00:30N 46°51' W 124°51'4 8.5
2018-Jun-19 00:00N 46°48' W 124°47'4 8.6
2018-Jun-18 23:30N 46°44' W 124°43'4 8.4
2018-Jun-18 23:00N 46°41' W 124°40'4 8.6
2018-Jun-18 22:31N 46°37' W 124°37'3 5.7
2018-Jun-18 22:00N 46°35' W 124°34'3 6.7
2018-Jun-18 21:31N 46°33' W 124°30'3 6.5
2018-Jun-18 21:01N 46°34' W 124°34'4 8.2
2018-Jun-18 20:30N 46°37' W 124°39'4 7.9
2018-Jun-18 20:00N 46°39' W 124°44'2 3.3
2018-Jun-18 19:31N 46°39' W 124°46'4 8.9
2018-Jun-18 19:01N 46°37' W 124°40'4 7.5
2018-Jun-18 18:30N 46°35' W 124°36'2 3.5
2018-Jun-18 18:00N 46°35' W 124°33'2 2.7
2018-Jun-18 17:21N 46°34' W 124°31'0 1.1
2018-Jun-18 17:00N 46°34' W 124°32'2 3.3
2018-Jun-18 16:30N 46°32' W 124°32'5 9.4
2018-Jun-18 16:01N 46°29' W 124°27'5 9.6
2018-Jun-18 15:30N 46°25' W 124°22'5 9.4
2018-Jun-18 15:01N 46°22' W 124°17'5 9.3
2018-Jun-18 14:31N 46°19' W 124°12'5 9.5
2018-Jun-18 14:00N 46°16' W 124°08'611.5
2018-Jun-18 13:31N 46°14' W 123°59'510.9
2018-Jun-18 13:00N 46°12' W 123°53'510.1
2018-Jun-18 12:30N 46°13' W 123°46'1 1.8
2018-Jun-18 12:00N 46°12' W 123°46'0 0.0
2018-Jun-18 11:31N 46°12' W 123°46'0 0.0
2018-Jun-18 11:01N 46°12' W 123°46'0 0.0
2018-Jun-18 10:30N 46°12' W 123°46'0 0.0
2018-Jun-18 10:00N 46°12' W 123°46'0 0.0
2018-Jun-18 09:30N 46°12' W 123°46'0 0.0
2018-Jun-18 09:01N 46°12' W 123°46'0 0.0
2018-Jun-18 08:31N 46°12' W 123°46'0 0.0
2018-Jun-18 08:01N 46°12' W 123°46'0 0.0
2018-Jun-18 07:31N 46°12' W 123°46'0 0.0
2018-Jun-18 06:59N 46°12' W 123°46'0 0.0
2018-Jun-18 06:29N 46°12' W 123°46'2 3.5
2018-Jun-18 06:01N 46°12' W 123°48'4 7.1
2018-Jun-18 05:30N 46°11' W 123°53'3 5.7
2018-Jun-18 05:01N 46°13' W 123°57'3 5.6
2018-Jun-18 04:31N 46°15' W 123°60'3 5.3
2018-Jun-18 04:01N 46°16' W 124°03'3 5.1
2018-Jun-18 03:31N 46°16' W 124°07'5 9.5
2018-Jun-18 03:00N 46°20' W 124°09'9 9.7
2018-Jun-18 02:06N 46°29' W 124°14'4 9.8
2018-Jun-18 01:44N 46°32' W 124°16'2 9.9
2018-Jun-18 01:30N 46°34' W 124°18'510.3
2018-Jun-18 01:01N 46°39' W 124°20'510.5
2018-Jun-18 00:30N 46°44' W 124°23'5 9.9
2018-Jun-18 00:01N 46°48' W 124°26'510.1
2018-Jun-17 23:31N 46°53' W 124°29'7 9.9
2018-Jun-17 22:47N 46°59' W 124°33'3 9.8
2018-Jun-17 22:31N 47°02' W 124°35'5 9.9
2018-Jun-17 22:00N 47°06' W 124°38'7 9.8
2018-Jun-17 21:18N 47°13' W 124°42'410.8
2018-Jun-17 20:56N 47°17' W 124°44'4 7.9
2018-Jun-17 20:23N 47°20' W 124°47'2 5.9
2018-Jun-17 20:01N 47°23' W 124°47'1 2.7
2018-Jun-17 19:31N 47°24' W 124°48'1 2.6
2018-Jun-17 19:01N 47°25' W 124°48'2 3.0
2018-Jun-17 18:31N 47°26' W 124°49'2 3.2
2018-Jun-17 18:00N 47°28' W 124°51'2 3.4
2018-Jun-17 17:30N 47°29' W 124°53'4 2.6
2018-Jun-17 15:51N 47°25' W 124°49'1 2.9
2018-Jun-17 15:31N 47°24' W 124°49'1 2.9
2018-Jun-17 15:00N 47°23' W 124°48'0 0.9
2018-Jun-17 14:31N 47°23' W 124°48'2 3.4
2018-Jun-17 14:00N 47°24' W 124°49'2 3.5
2018-Jun-17 13:30N 47°26' W 124°50'2 4.6
2018-Jun-17 13:00N 47°28' W 124°52'2 3.7
2018-Jun-17 12:30N 47°27' W 124°49'1 1.6
2018-Jun-17 12:00N 47°26' W 124°49'3 5.4
2018-Jun-17 11:30N 47°28' W 124°51'1 1.8
2018-Jun-17 11:00N 47°29' W 124°52'1 1.1
2018-Jun-17 10:31N 47°29' W 124°52'1 1.2
2018-Jun-17 09:49N 47°30' W 124°53'0 1.0
2018-Jun-17 09:31N 47°30' W 124°53'0 1.0
2018-Jun-17 09:00N 47°31' W 124°54'0 0.8
2018-Jun-17 08:31N 47°31' W 124°54'0 0.9
2018-Jun-17 08:00N 47°31' W 124°55'0 0.8
2018-Jun-17 07:30N 47°32' W 124°55'0 0.9
2018-Jun-17 06:58N 47°32' W 124°55'0 0.9
2018-Jun-17 06:30N 47°33' W 124°55'0 0.9
2018-Jun-17 06:01N 47°33' W 124°55'0 0.9
2018-Jun-17 05:30N 47°34' W 124°55'1 1.1
2018-Jun-17 04:58N 47°34' W 124°55'3 6.4
2018-Jun-17 04:31N 47°37' W 124°56'4 7.2
2018-Jun-17 04:00N 47°41' W 124°55'5 9.5
2018-Jun-17 03:29N 47°41' W 125°02'3 6.9
2018-Jun-17 03:01N 47°44' W 125°05'3 5.4
2018-Jun-17 02:30N 47°46' W 125°04'7 8.7
2018-Jun-17 01:45N 47°51' W 125°11'310.4
2018-Jun-17 01:29N 47°54' W 125°13'510.3
2018-Jun-17 01:01N 47°58' W 125°17'3 6.7
2018-Jun-17 00:30N 48°01' W 125°20'1 2.1
2018-Jun-17 00:01N 48°02' W 125°21'1 2.6
2018-Jun-16 23:31N 48°03' W 125°21'1 2.6
2018-Jun-16 23:00N 48°03' W 125°19'1 3.0
2018-Jun-16 22:31N 48°05' W 125°20'1 1.4
2018-Jun-16 22:00N 48°05' W 125°19'0 0.8
2018-Jun-16 21:31N 48°04' W 125°19'1 2.0
2018-Jun-16 20:57N 48°03' W 125°19'1 2.5
2018-Jun-16 20:30N 48°04' W 125°20'1 1.4
2018-Jun-16 19:59N 48°04' W 125°19'3 6.5
2018-Jun-16 19:30N 48°01' W 125°20'4 7.7
2018-Jun-16 19:00N 47°58' W 125°17'62 4.8
2018-Jun-16 06:02N 47°02' W 124°35'1 8.6
2018-Jun-16 05:55N 47°01' W 124°35'3 8.4
2018-Jun-16 05:30N 46°58' W 124°33'4 8.7
2018-Jun-16 05:00N 46°54' W 124°30'5 9.0
2018-Jun-16 04:28N 46°50' W 124°27'5 8.4
2018-Jun-16 03:54N 46°45' W 124°25'3 8.4
2018-Jun-16 03:30N 46°42' W 124°23'4 8.3
2018-Jun-16 03:00N 46°38' W 124°21'4 8.3
2018-Jun-16 02:30N 46°35' W 124°18'5 8.5
2018-Jun-16 01:53N 46°30' W 124°15'3 8.7
2018-Jun-16 01:30N 46°27' W 124°13'5 9.2
2018-Jun-16 01:00N 46°22' W 124°11'4 9.1
2018-Jun-16 00:31N 46°18' W 124°08'4 7.9
2018-Jun-16 00:01N 46°15' W 124°04'5 9.9
2018-Jun-15 23:31N 46°13' W 123°58'4 8.8
2018-Jun-15 23:01N 46°12' W 123°52'4 8.6
2018-Jun-15 22:30N 46°13' W 123°46'1 1.9
2018-Jun-15 22:01N 46°12' W 123°46'0 0.0
2018-Jun-15 21:31N 46°12' W 123°46'0 0.0
2018-Jun-15 21:01N 46°12' W 123°46'0 0.0
2018-Jun-15 20:31N 46°12' W 123°46'0 0.0
2018-Jun-15 20:00N 46°12' W 123°46'0 0.0
2018-Jun-15 19:30N 46°12' W 123°46'0 0.0
2018-Jun-15 19:00N 46°12' W 123°46'0 0.0
2018-Jun-15 18:31N 46°12' W 123°46'0 0.0
2018-Jun-15 18:00N 46°12' W 123°46'0 0.0
2018-Jun-15 17:31N 46°12' W 123°46'0 0.0
2018-Jun-15 17:01N 46°12' W 123°46'0 0.0
2018-Jun-15 16:31N 46°12' W 123°46'0 0.0
2018-Jun-15 15:51N 46°12' W 123°46'0 0.0
2018-Jun-15 15:30N 46°12' W 123°46'0 0.0
2018-Jun-15 15:01N 46°12' W 123°46'0 0.0
2018-Jun-15 14:31N 46°12' W 123°46'0 0.0
2018-Jun-15 14:01N 46°12' W 123°46'0 0.0
2018-Jun-15 13:30N 46°12' W 123°46'0 0.0
2018-Jun-15 13:00N 46°12' W 123°46'0 0.0
2018-Jun-15 12:31N 46°12' W 123°46'0 0.0
2018-Jun-15 11:50N 46°12' W 123°46'0 0.0
2018-Jun-15 11:30N 46°12' W 123°46'0 0.0
2018-Jun-15 11:00N 46°12' W 123°46'0 0.0
2018-Jun-15 10:31N 46°12' W 123°46'0 0.0
2018-Jun-15 09:37N 46°12' W 123°46'0 0.0
2018-Jun-15 09:31N 46°12' W 123°46'0 0.0
2018-Jun-15 09:00N 46°12' W 123°46'0 0.0
2018-Jun-15 08:31N 46°12' W 123°46'0 0.0
2018-Jun-15 08:00N 46°12' W 123°46'0 0.0
2018-Jun-15 07:19N 46°12' W 123°46'0 0.0
2018-Jun-15 06:59N 46°12' W 123°46'0 0.0
2018-Jun-15 06:30N 46°12' W 123°46'0 0.0
2018-Jun-15 06:00N 46°12' W 123°46'0 0.0
2018-Jun-15 05:31N 46°12' W 123°46'0 0.0
2018-Jun-15 05:00N 46°12' W 123°46'0 0.0
2018-Jun-15 04:30N 46°12' W 123°46'0 0.0
2018-Jun-15 04:01N 46°12' W 123°46'0 0.0
2018-Jun-15 03:03N 46°12' W 123°46'0 0.0
2018-Jun-15 03:00N 46°12' W 123°46'0 0.0
2018-Jun-15 02:31N 46°12' W 123°46'0 0.0
2018-Jun-15 02:01N 46°12' W 123°46'0 0.0
2018-Jun-15 01:21N 46°12' W 123°46'0 0.0
2018-Jun-15 01:00N 46°12' W 123°46'0 0.0
2018-Jun-15 00:31N 46°12' W 123°46'0 0.0
2018-Jun-15 00:01N 46°12' W 123°46'0 0.0
2018-Jun-14 23:30N 46°12' W 123°46'2 3.6
2018-Jun-14 23:01N 46°12' W 123°48'2 3.3
2018-Jun-14 22:31N 46°12' W 123°50'0 0.0
2018-Jun-14 22:00N 46°12' W 123°50'5 9.1
2018-Jun-14 21:30N 46°13' W 123°57'611.3
2018-Jun-14 21:00N 46°15' W 124°04'5 9.8
2018-Jun-14 20:31N 46°18' W 124°10'5 9.8
2018-Jun-14 20:00N 46°21' W 124°16'5 9.9
2018-Jun-14 19:30N 46°25' W 124°20'4 8.6
2018-Jun-14 19:00N 46°28' W 124°24'4 7.4
2018-Jun-14 18:30N 46°31' W 124°28'3 6.4
2018-Jun-14 18:00N 46°33' W 124°31'1 2.8
2018-Jun-14 17:30N 46°34' W 124°32'1 2.0
2018-Jun-14 17:00N 46°34' W 124°31'1 3.0
2018-Jun-14 16:30N 46°33' W 124°29'2 4.2
2018-Jun-14 16:00N 46°34' W 124°32'4 8.3
2018-Jun-14 15:30N 46°30' W 124°29'5 9.7
2018-Jun-14 15:01N 46°26' W 124°25'6 9.7
2018-Jun-14 14:22N 46°22' W 124°19'4 9.8
2018-Jun-14 14:01N 46°19' W 124°15'5 9.9
2018-Jun-14 13:30N 46°16' W 124°10'4 7.9
2018-Jun-14 13:00N 46°15' W 124°04'713.3
2018-Jun-14 12:31N 46°12' W 123°56'713.4
2018-Jun-14 12:01N 46°13' W 123°46'1 1.9
2018-Jun-14 11:31N 46°12' W 123°46'0 0.0
2018-Jun-14 11:00N 46°12' W 123°46'0 0.0
2018-Jun-14 10:30N 46°12' W 123°46'0 0.0
2018-Jun-14 10:01N 46°12' W 123°46'0 0.0
2018-Jun-14 09:31N 46°12' W 123°46'0 0.0
2018-Jun-14 09:00N 46°12' W 123°46'0 0.0
2018-Jun-14 08:30N 46°12' W 123°46'0 0.0
2018-Jun-14 08:01N 46°12' W 123°46'0 0.0
2018-Jun-14 07:30N 46°12' W 123°46'4 7.7
2018-Jun-14 06:59N 46°12' W 123°51'511.2
2018-Jun-14 06:30N 46°14' W 123°58'611.2
2018-Jun-14 06:00N 46°15' W 124°06'710.5
2018-Jun-14 05:23N 46°20' W 124°12'410.5
2018-Jun-14 05:01N 46°23' W 124°16'510.8
2018-Jun-14 04:31N 46°28' W 124°21'510.7
2018-Jun-14 04:00N 46°32' W 124°26'710.7
2018-Jun-14 03:19N 46°37' W 124°33'310.3
2018-Jun-14 03:01N 46°40' W 124°36'5 9.9
2018-Jun-14 02:31N 46°44' W 124°40'5 9.8
2018-Jun-14 02:01N 46°47' W 124°45'5 9.9
2018-Jun-14 01:31N 46°51' W 124°49'4 7.9
2018-Jun-14 01:00N 46°54' W 124°53'2 4.8
2018-Jun-14 00:31N 46°56' W 124°55'1 2.0
2018-Jun-14 00:01N 46°56' W 124°57'2 3.2
2018-Jun-13 23:31N 46°56' W 124°59'1 2.9
2018-Jun-13 23:00N 46°56' W 124°57'1 1.2
2018-Jun-13 22:31N 46°56' W 124°56'1 2.0
2018-Jun-13 22:01N 46°56' W 124°57'2 3.7
2018-Jun-13 21:30N 46°56' W 125°00'3 6.4
2018-Jun-13 21:01N 46°55' W 124°56'5 9.4
2018-Jun-13 20:30N 46°50' W 124°55'4 9.1
2018-Jun-13 20:00N 46°46' W 124°53'4 8.6
2018-Jun-13 19:30N 46°43' W 124°48'4 7.9
2018-Jun-13 19:00N 46°40' W 124°44'4 7.9
2018-Jun-13 18:30N 46°37' W 124°40'5 9.8
2018-Jun-13 18:00N 46°39' W 124°34'510.1
2018-Jun-13 17:30N 46°42' W 124°27'4 6.5
2018-Jun-13 16:50N 46°40' W 124°22'3 9.3
2018-Jun-13 16:30N 46°37' W 124°20'4 8.8
2018-Jun-13 16:00N 46°33' W 124°18'4 8.5
2018-Jun-13 15:30N 46°29' W 124°15'4 8.5
2018-Jun-13 15:00N 46°25' W 124°13'4 8.8
2018-Jun-13 14:30N 46°21' W 124°10'  

Dump ship's entire track history